sensor_id;sensor_type;location;lat;lon;timestamp;pressure;altitude;pressure_sealevel;temperature;humidity
78562;BME280;68963;52.138;5.446;2023-04-28T00:01:12;101574.84;;;8.37;63.10
78562;BME280;68963;52.138;5.446;2023-04-28T00:03:38;101590.72;;;8.36;62.70
78562;BME280;68963;52.138;5.446;2023-04-28T00:06:05;101593.22;;;8.37;62.92
78562;BME280;68963;52.138;5.446;2023-04-28T00:08:32;101593.03;;;8.39;63.04
78562;BME280;68963;52.138;5.446;2023-04-28T00:10:58;101595.66;;;8.39;63.56
78562;BME280;68963;52.138;5.446;2023-04-28T00:13:26;101590.13;;;8.42;62.88
78562;BME280;68963;52.138;5.446;2023-04-28T00:15:53;101568.97;;;8.43;63.02
78562;BME280;68963;52.138;5.446;2023-04-28T00:18:20;101564.84;;;8.41;62.92
78562;BME280;68963;52.138;5.446;2023-04-28T00:20:47;101560.88;;;8.37;63.36
78562;BME280;68963;52.138;5.446;2023-04-28T00:23:14;101569.88;;;8.34;63.58
78562;BME280;68963;52.138;5.446;2023-04-28T00:25:40;101552.47;;;8.33;63.90
78562;BME280;68963;52.138;5.446;2023-04-28T00:28:07;101546.53;;;8.31;64.18
78562;BME280;68963;52.138;5.446;2023-04-28T00:30:34;101541.94;;;8.25;64.26
78562;BME280;68963;52.138;5.446;2023-04-28T00:33:00;101543.72;;;8.24;64.35
78562;BME280;68963;52.138;5.446;2023-04-28T00:35:27;101541.09;;;8.24;63.79
78562;BME280;68963;52.138;5.446;2023-04-28T00:37:53;101525.34;;;8.24;63.49
78562;BME280;68963;52.138;5.446;2023-04-28T00:40:20;101520.94;;;8.25;63.95
78562;BME280;68963;52.138;5.446;2023-04-28T00:42:46;101515.69;;;8.25;63.92
78562;BME280;68963;52.138;5.446;2023-04-28T00:45:13;101526.31;;;8.23;64.36
78562;BME280;68963;52.138;5.446;2023-04-28T00:47:41;101533.06;;;8.26;64.76
78562;BME280;68963;52.138;5.446;2023-04-28T00:50:08;101531.94;;;8.29;65.05
78562;BME280;68963;52.138;5.446;2023-04-28T00:52:37;101533.41;;;8.31;65.78
78562;BME280;68963;52.138;5.446;2023-04-28T00:55:04;101527.22;;;8.32;65.11
78562;BME280;68963;52.138;5.446;2023-04-28T00:57:30;101524.72;;;8.31;64.51
78562;BME280;68963;52.138;5.446;2023-04-28T00:59:57;101522.41;;;8.28;64.79
78562;BME280;68963;52.138;5.446;2023-04-28T01:02:24;101517.31;;;8.26;64.98
78562;BME280;68963;52.138;5.446;2023-04-28T01:04:52;101512.09;;;8.26;65.04
78562;BME280;68963;52.138;5.446;2023-04-28T01:07:19;101510.97;;;8.29;65.10
78562;BME280;68963;52.138;5.446;2023-04-28T01:09:46;101514.53;;;8.28;65.32
78562;BME280;68963;52.138;5.446;2023-04-28T01:12:13;101499.94;;;8.25;64.87
78562;BME280;68963;52.138;5.446;2023-04-28T01:14:39;101503.53;;;8.24;65.62
78562;BME280;68963;52.138;5.446;2023-04-28T01:17:07;101505.50;;;8.22;65.19
78562;BME280;68963;52.138;5.446;2023-04-28T01:19:33;101504.50;;;8.23;65.96
78562;BME280;68963;52.138;5.446;2023-04-28T01:22:00;101507.31;;;8.21;66.36
78562;BME280;68963;52.138;5.446;2023-04-28T01:24:26;101503.19;;;8.19;66.65
78562;BME280;68963;52.138;5.446;2023-04-28T01:26:53;101496.28;;;8.18;66.94
78562;BME280;68963;52.138;5.446;2023-04-28T01:29:19;101496.59;;;8.15;66.42
78562;BME280;68963;52.138;5.446;2023-04-28T01:31:46;101488.72;;;8.15;66.91
78562;BME280;68963;52.138;5.446;2023-04-28T01:34:12;101491.19;;;8.16;67.16
78562;BME280;68963;52.138;5.446;2023-04-28T01:36:39;101485.94;;;8.16;67.61
78562;BME280;68963;52.138;5.446;2023-04-28T01:39:06;101488.72;;;8.15;67.77
78562;BME280;68963;52.138;5.446;2023-04-28T01:41:33;101484.47;;;8.14;67.69
78562;BME280;68963;52.138;5.446;2023-04-28T01:43:59;101477.56;;;8.13;67.69
78562;BME280;68963;52.138;5.446;2023-04-28T01:46:26;101477.56;;;8.13;68.65
78562;BME280;68963;52.138;5.446;2023-04-28T01:48:53;101470.84;;;8.10;67.83
78562;BME280;68963;52.138;5.446;2023-04-28T01:51:19;101465.59;;;8.10;67.81
78562;BME280;68963;52.138;5.446;2023-04-28T01:53:46;101458.84;;;8.08;67.77
78562;BME280;68963;52.138;5.446;2023-04-28T01:56:12;101444.22;;;8.05;68.36
78562;BME280;68963;52.138;5.446;2023-04-28T01:58:38;101449.78;;;8.02;66.81
78562;BME280;68963;52.138;5.446;2023-04-28T02:01:05;101452.41;;;8.02;66.68
78562;BME280;68963;52.138;5.446;2023-04-28T02:03:32;101460.28;;;8.02;67.57
78562;BME280;68963;52.138;5.446;2023-04-28T02:05:58;101453.38;;;8.01;66.75
78562;BME280;68963;52.138;5.446;2023-04-28T02:08:25;101448.13;;;8.01;67.05
78562;BME280;68963;52.138;5.446;2023-04-28T02:10:51;101449.94;;;8.01;67.41
78562;BME280;68963;52.138;5.446;2023-04-28T02:13:18;101448.31;;;7.99;68.23
78562;BME280;68963;52.138;5.446;2023-04-28T02:15:44;101446.66;;;7.98;66.95
78562;BME280;68963;52.138;5.446;2023-04-28T02:18:11;101442.25;;;7.99;67.57
78562;BME280;68963;52.138;5.446;2023-04-28T02:20:37;101441.25;;;8.00;67.66
78562;BME280;68963;52.138;5.446;2023-04-28T02:23:04;101437.81;;;7.99;67.36
78562;BME280;68963;52.138;5.446;2023-04-28T02:25:30;101434.38;;;7.99;68.27
78562;BME280;68963;52.138;5.446;2023-04-28T02:27:57;101431.59;;;8.01;67.57
78562;BME280;68963;52.138;5.446;2023-04-28T02:30:24;101423.72;;;8.01;67.29
78562;BME280;68963;52.138;5.446;2023-04-28T02:32:51;101417.66;;;8.00;67.46
78562;BME280;68963;52.138;5.446;2023-04-28T02:35:17;101415.03;;;8.00;66.39
78562;BME280;68963;52.138;5.446;2023-04-28T02:37:44;101417.66;;;8.00;66.88
78562;BME280;68963;52.138;5.446;2023-04-28T02:40:10;101406.34;;;7.99;66.77
78562;BME280;68963;52.138;5.446;2023-04-28T02:42:37;101411.41;;;8.01;66.95
78562;BME280;68963;52.138;5.446;2023-04-28T02:45:04;101415.03;;;8.00;68.17
78562;BME280;68963;52.138;5.446;2023-04-28T02:47:31;101410.91;;;7.97;67.29
78562;BME280;68963;52.138;5.446;2023-04-28T02:49:57;101409.91;;;7.98;67.39
78562;BME280;68963;52.138;5.446;2023-04-28T02:52:24;101399.28;;;8.00;67.40
78562;BME280;68963;52.138;5.446;2023-04-28T02:54:50;101382.03;;;7.97;66.66
78562;BME280;68963;52.138;5.446;2023-04-28T02:57:19;101395.16;;;7.97;66.64
78562;BME280;68963;52.138;5.446;2023-04-28T02:59:46;101380.25;;;7.98;66.10
78562;BME280;68963;52.138;5.446;2023-04-28T03:02:12;101374.19;;;7.97;67.20
78562;BME280;68963;52.138;5.446;2023-04-28T03:04:40;101360.25;;;7.97;66.67
78562;BME280;68963;52.138;5.446;2023-04-28T03:07:07;101364.81;;;7.95;66.96
78562;BME280;68963;52.138;5.446;2023-04-28T03:09:34;101366.63;;;7.94;67.05
78562;BME280;68963;52.138;5.446;2023-04-28T03:12:00;101355.47;;;7.92;68.12
78562;BME280;68963;52.138;5.446;2023-04-28T03:14:28;101357.28;;;7.92;67.91
78562;BME280;68963;52.138;5.446;2023-04-28T03:16:55;101355.63;;;7.91;67.83
78562;BME280;68963;52.138;5.446;2023-04-28T03:19:23;101354.81;;;7.90;67.25
78562;BME280;68963;52.138;5.446;2023-04-28T03:21:49;101349.56;;;7.90;67.79
78562;BME280;68963;52.138;5.446;2023-04-28T03:24:16;101349.41;;;7.92;68.25
78562;BME280;68963;52.138;5.446;2023-04-28T03:26:43;101346.13;;;7.90;67.69
78562;BME280;68963;52.138;5.446;2023-04-28T03:29:09;101351.19;;;7.91;67.75
78562;BME280;68963;52.138;5.446;2023-04-28T03:31:36;101345.81;;;7.93;68.17
78562;BME280;68963;52.138;5.446;2023-04-28T03:34:02;101340.56;;;7.93;68.21
78562;BME280;68963;52.138;5.446;2023-04-28T03:36:29;101336.13;;;7.93;67.47
78562;BME280;68963;52.138;5.446;2023-04-28T03:38:57;101333.69;;;7.92;68.86
78562;BME280;68963;52.138;5.446;2023-04-28T03:41:23;101325.94;;;7.90;68.00
78562;BME280;68963;52.138;5.446;2023-04-28T03:43:50;101313.81;;;7.89;68.29
78562;BME280;68963;52.138;5.446;2023-04-28T03:46:17;101311.34;;;7.88;68.75
78562;BME280;68963;52.138;5.446;2023-04-28T03:48:43;101313.16;;;7.87;68.85
78562;BME280;68963;52.138;5.446;2023-04-28T03:51:11;101319.88;;;7.90;69.21
78562;BME280;68963;52.138;5.446;2023-04-28T03:53:37;101329.25;;;7.92;70.32
78562;BME280;68963;52.138;5.446;2023-04-28T03:56:04;101322.03;;;7.94;70.64
78562;BME280;68963;52.138;5.446;2023-04-28T03:58:31;101326.31;;;7.95;70.55
78562;BME280;68963;52.138;5.446;2023-04-28T04:00:57;101316.63;;;7.96;70.80
78562;BME280;68963;52.138;5.446;2023-04-28T04:03:25;101313.03;;;7.97;71.17
78562;BME280;68963;52.138;5.446;2023-04-28T04:05:53;101307.59;;;7.98;71.19
78562;BME280;68963;52.138;5.446;2023-04-28T04:08:21;101301.53;;;7.98;70.82
78562;BME280;68963;52.138;5.446;2023-04-28T04:10:47;101305.00;;;7.98;70.72
78562;BME280;68963;52.138;5.446;2023-04-28T04:13:13;101304.16;;;7.98;71.29
78562;BME280;68963;52.138;5.446;2023-04-28T04:15:40;101299.25;;;7.95;70.19
78562;BME280;68963;52.138;5.446;2023-04-28T04:18:07;101298.41;;;7.94;70.88
78562;BME280;68963;52.138;5.446;2023-04-28T04:20:33;101290.41;;;7.96;70.80
78562;BME280;68963;52.138;5.446;2023-04-28T04:23:00;101282.53;;;7.96;70.88
78562;BME280;68963;52.138;5.446;2023-04-28T04:25:27;101276.47;;;7.95;71.15
78562;BME280;68963;52.138;5.446;2023-04-28T04:27:53;101277.28;;;7.96;71.84
78562;BME280;68963;52.138;5.446;2023-04-28T04:30:20;101280.56;;;7.98;71.95
78562;BME280;68963;52.138;5.446;2023-04-28T04:32:46;101283.84;;;8.00;71.93
78562;BME280;68963;52.138;5.446;2023-04-28T04:35:13;101281.06;;;8.02;71.63
78562;BME280;68963;52.138;5.446;2023-04-28T04:37:40;101276.63;;;8.02;71.46
78562;BME280;68963;52.138;5.446;2023-04-28T04:40:07;101273.19;;;8.02;71.52
78562;BME280;68963;52.138;5.446;2023-04-28T04:42:34;101268.75;;;8.02;71.81
78562;BME280;68963;52.138;5.446;2023-04-28T04:45:00;101257.31;;;8.03;71.77
78562;BME280;68963;52.138;5.446;2023-04-28T04:47:27;101259.94;;;8.03;72.30
78562;BME280;68963;52.138;5.446;2023-04-28T04:49:53;101260.75;;;8.04;72.50
78562;BME280;68963;52.138;5.446;2023-04-28T04:52:20;101259.28;;;8.09;73.09
78562;BME280;68963;52.138;5.446;2023-04-28T04:54:46;101257.00;;;8.14;72.79
78562;BME280;68963;52.138;5.446;2023-04-28T04:57:13;101261.75;;;8.19;72.58
78562;BME280;68963;52.138;5.446;2023-04-28T04:59:39;101257.31;;;8.19;73.30
78562;BME280;68963;52.138;5.446;2023-04-28T05:02:06;101249.28;;;8.21;73.31
78562;BME280;68963;52.138;5.446;2023-04-28T05:04:33;101247.66;;;8.20;72.96
78562;BME280;68963;52.138;5.446;2023-04-28T05:06:59;101244.38;;;8.18;72.66
78562;BME280;68963;52.138;5.446;2023-04-28T05:09:26;101244.03;;;8.13;73.01
78562;BME280;68963;52.138;5.446;2023-04-28T05:11:52;101246.81;;;8.11;72.72
78562;BME280;68963;52.138;5.446;2023-04-28T05:14:19;101248.63;;;8.11;73.21
78562;BME280;68963;52.138;5.446;2023-04-28T05:16:46;101247.66;;;8.12;72.93
78562;BME280;68963;52.138;5.446;2023-04-28T05:19:12;101247.47;;;8.13;72.48
78562;BME280;68963;52.138;5.446;2023-04-28T05:21:39;101249.28;;;8.13;73.27
78562;BME280;68963;52.138;5.446;2023-04-28T05:24:05;101254.03;;;8.09;73.34
78562;BME280;68963;52.138;5.446;2023-04-28T05:26:32;101242.56;;;8.10;73.89
78562;BME280;68963;52.138;5.446;2023-04-28T05:28:59;101247.66;;;8.12;74.18
78562;BME280;68963;52.138;5.446;2023-04-28T05:31:25;101241.91;;;8.08;74.04
78562;BME280;68963;52.138;5.446;2023-04-28T05:33:52;101250.75;;;8.07;74.69
78562;BME280;68963;52.138;5.446;2023-04-28T05:36:18;101246.31;;;8.08;74.57
78562;BME280;68963;52.138;5.446;2023-04-28T05:38:45;101248.47;;;8.12;75.23
78562;BME280;68963;52.138;5.446;2023-04-28T05:41:11;101254.22;;;8.16;75.34
78562;BME280;68963;52.138;5.446;2023-04-28T05:43:38;101261.59;;;8.20;76.47
78562;BME280;68963;52.138;5.446;2023-04-28T05:46:04;101256.19;;;8.22;78.61
78562;BME280;68963;52.138;5.446;2023-04-28T05:48:40;101258.47;;;8.17;80.68
78562;BME280;68963;52.138;5.446;2023-04-28T05:51:06;101255.69;;;8.18;82.24
78562;BME280;68963;52.138;5.446;2023-04-28T05:53:33;101243.88;;;8.14;82.93
78562;BME280;68963;52.138;5.446;2023-04-28T05:55:59;101246.81;;;8.11;83.89
78562;BME280;68963;52.138;5.446;2023-04-28T05:58:26;101250.75;;;8.07;85.27
78562;BME280;68963;52.138;5.446;2023-04-28T06:00:52;101246.16;;;8.01;86.68
78562;BME280;68963;52.138;5.446;2023-04-28T06:03:20;101248.25;;;7.97;87.33
78562;BME280;68963;52.138;5.446;2023-04-28T06:05:47;101255.81;;;8.01;87.94
78562;BME280;68963;52.138;5.446;2023-04-28T06:08:14;101253.69;;;8.04;88.24
78562;BME280;68963;52.138;5.446;2023-04-28T06:10:41;101259.75;;;8.05;88.03
78562;BME280;68963;52.138;5.446;2023-04-28T06:13:07;101265.50;;;8.08;87.58
78562;BME280;68963;52.138;5.446;2023-04-28T06:15:34;101253.72;;;8.12;88.47
78562;BME280;68963;52.138;5.446;2023-04-28T06:18:01;101243.56;;;8.17;89.56
78562;BME280;68963;52.138;5.446;2023-04-28T06:20:27;101236.81;;;8.15;90.11
78562;BME280;68963;52.138;5.446;2023-04-28T06:22:54;101228.97;;;8.15;90.53
78562;BME280;68963;52.138;5.446;2023-04-28T06:25:20;101222.72;;;8.24;91.40
78562;BME280;68963;52.138;5.446;2023-04-28T06:27:47;101222.09;;;8.22;91.73
78562;BME280;68963;52.138;5.446;2023-04-28T06:30:17;101213.53;;;8.20;92.80
78562;BME280;68963;52.138;5.446;2023-04-28T06:32:45;101219.13;;;8.33;92.46
78562;BME280;68963;52.138;5.446;2023-04-28T06:35:12;101220.31;;;8.55;92.59
78562;BME280;68963;52.138;5.446;2023-04-28T06:37:39;101212.75;;;8.77;92.93
78562;BME280;68963;52.138;5.446;2023-04-28T06:40:06;101208.41;;;9.00;92.59
78562;BME280;68963;52.138;5.446;2023-04-28T06:42:33;101219.53;;;9.18;92.80
78562;BME280;68963;52.138;5.446;2023-04-28T06:44:59;101213.72;;;9.31;92.40
78562;BME280;68963;52.138;5.446;2023-04-28T06:47:26;101207.00;;;9.37;92.17
78562;BME280;68963;52.138;5.446;2023-04-28T06:49:53;101210.72;;;9.42;92.22
78562;BME280;68963;52.138;5.446;2023-04-28T06:52:19;101217.41;;;9.53;91.21
78562;BME280;68963;52.138;5.446;2023-04-28T06:54:58;101217.03;;;9.64;91.97
78562;BME280;68963;52.138;5.446;2023-04-28T06:57:24;101211.88;;;9.79;92.23
78562;BME280;68963;52.138;5.446;2023-04-28T06:59:51;101205.22;;;9.91;91.93
78562;BME280;68963;52.138;5.446;2023-04-28T07:02:17;101202.25;;;9.95;92.54
78562;BME280;68963;52.138;5.446;2023-04-28T07:04:44;101200.25;;;9.97;92.54
78562;BME280;68963;52.138;5.446;2023-04-28T07:07:10;101198.56;;;10.04;93.83
78562;BME280;68963;52.138;5.446;2023-04-28T07:09:38;101191.66;;;10.03;93.90
78562;BME280;68963;52.138;5.446;2023-04-28T07:12:05;101188.84;;;10.04;94.72
78562;BME280;68963;52.138;5.446;2023-04-28T07:14:31;101201.44;;;10.17;94.96
78562;BME280;68963;52.138;5.446;2023-04-28T07:16:58;101209.13;;;10.27;94.72
78562;BME280;68963;52.138;5.446;2023-04-28T07:19:24;101201.91;;;10.21;94.80
78562;BME280;68963;52.138;5.446;2023-04-28T07:21:51;101200.91;;;10.22;95.80
78562;BME280;68963;52.138;5.446;2023-04-28T07:24:18;101210.13;;;10.26;95.50
78562;BME280;68963;52.138;5.446;2023-04-28T07:26:44;101201.69;;;10.30;96.44
78562;BME280;68963;52.138;5.446;2023-04-28T07:29:11;101206.53;;;10.42;96.60
78562;BME280;68963;52.138;5.446;2023-04-28T07:31:39;101205.75;;;10.56;96.55
78562;BME280;68963;52.138;5.446;2023-04-28T07:34:05;101203.69;;;10.66;96.43
78562;BME280;68963;52.138;5.446;2023-04-28T07:36:33;101211.16;;;10.77;96.06
78562;BME280;68963;52.138;5.446;2023-04-28T07:39:00;101205.72;;;10.94;95.59
78562;BME280;68963;52.138;5.446;2023-04-28T07:41:27;101204.28;;;11.06;95.16
78562;BME280;68963;52.138;5.446;2023-04-28T07:43:54;101198.28;;;11.12;94.41
78562;BME280;68963;52.138;5.446;2023-04-28T07:46:20;101197.44;;;11.11;95.78
78562;BME280;68963;52.138;5.446;2023-04-28T07:48:48;101194.78;;;11.26;95.77
78562;BME280;68963;52.138;5.446;2023-04-28T07:51:14;101179.84;;;11.48;95.38
78562;BME280;68963;52.138;5.446;2023-04-28T07:53:41;101182.41;;;11.56;94.67
78562;BME280;68963;52.138;5.446;2023-04-28T07:56:08;101184.69;;;11.81;95.13
78562;BME280;68963;52.138;5.446;2023-04-28T07:58:35;101181.84;;;11.97;93.86
78562;BME280;68963;52.138;5.446;2023-04-28T08:01:01;101175.25;;;12.08;92.97
78562;BME280;68963;52.138;5.446;2023-04-28T08:03:27;101185.03;;;12.14;92.99
78562;BME280;68963;52.138;5.446;2023-04-28T08:05:54;101185.91;;;12.21;92.67
78562;BME280;68963;52.138;5.446;2023-04-28T08:08:21;101181.34;;;12.37;92.16
78562;BME280;68963;52.138;5.446;2023-04-28T08:10:47;101175.09;;;12.38;92.60
78562;BME280;68963;52.138;5.446;2023-04-28T08:13:15;101175.47;;;12.35;91.79
78562;BME280;68963;52.138;5.446;2023-04-28T08:15:42;101173.41;;;12.30;92.17
78562;BME280;68963;52.138;5.446;2023-04-28T08:18:09;101170.31;;;12.26;91.81
78562;BME280;68963;52.138;5.446;2023-04-28T08:20:35;101171.28;;;12.19;91.94
78562;BME280;68963;52.138;5.446;2023-04-28T08:23:02;101171.38;;;12.11;92.09
78562;BME280;68963;52.138;5.446;2023-04-28T08:25:28;101184.16;;;12.07;93.07
78562;BME280;68963;52.138;5.446;2023-04-28T08:27:55;101191.16;;;11.93;92.94
78562;BME280;68963;52.138;5.446;2023-04-28T08:30:23;101189.03;;;11.89;93.51
78562;BME280;68963;52.138;5.446;2023-04-28T08:32:49;101182.59;;;11.91;94.31
78562;BME280;68963;52.138;5.446;2023-04-28T08:35:16;101188.06;;;11.90;94.32
78562;BME280;68963;52.138;5.446;2023-04-28T08:37:42;101191.06;;;11.87;94.00
78562;BME280;68963;52.138;5.446;2023-04-28T08:40:09;101182.03;;;11.81;94.60
78562;BME280;68963;52.138;5.446;2023-04-28T08:42:37;101182.59;;;11.76;95.12
78562;BME280;68963;52.138;5.446;2023-04-28T08:45:04;101181.59;;;11.77;95.63
78562;BME280;68963;52.138;5.446;2023-04-28T08:47:34;101184.78;;;11.88;96.90
78562;BME280;68963;52.138;5.446;2023-04-28T08:50:08;101186.19;;;12.05;97.01
78562;BME280;68963;52.138;5.446;2023-04-28T08:52:35;101180.63;;;12.21;97.20
78562;BME280;68963;52.138;5.446;2023-04-28T08:55:09;101176.72;;;12.39;96.56
78562;BME280;68963;52.138;5.446;2023-04-28T08:57:49;101178.84;;;12.50;95.66
78562;BME280;68963;52.138;5.446;2023-04-28T09:00:19;101177.06;;;12.57;95.57
78562;BME280;68963;52.138;5.446;2023-04-28T09:02:46;101179.56;;;12.65;95.41
78562;BME280;68963;52.138;5.446;2023-04-28T09:05:13;101178.88;;;12.56;95.97
78562;BME280;68963;52.138;5.446;2023-04-28T09:07:40;101170.28;;;12.48;95.49
78562;BME280;68963;52.138;5.446;2023-04-28T09:10:20;101172.88;;;12.41;96.00
78562;BME280;68963;52.138;5.446;2023-04-28T09:12:50;101165.81;;;12.48;95.92
78562;BME280;68963;52.138;5.446;2023-04-28T09:15:34;101164.03;;;12.55;96.28
78562;BME280;68963;52.138;5.446;2023-04-28T09:18:03;101158.34;;;12.52;96.51
78562;BME280;68963;52.138;5.446;2023-04-28T09:20:31;101153.97;;;12.44;96.54
78562;BME280;68963;52.138;5.446;2023-04-28T09:23:17;101157.63;;;12.43;96.88
78562;BME280;68963;52.138;5.446;2023-04-28T09:26:01;101157.03;;;12.41;97.23
78562;BME280;68963;52.138;5.446;2023-04-28T09:28:30;101153.00;;;12.45;98.24
78562;BME280;68963;52.138;5.446;2023-04-28T09:30:56;101149.91;;;12.42;98.03
78562;BME280;68963;52.138;5.446;2023-04-28T09:33:23;101158.22;;;12.39;98.51
78562;BME280;68963;52.138;5.446;2023-04-28T09:35:50;101166.59;;;12.42;98.73
78562;BME280;68963;52.138;5.446;2023-04-28T09:38:19;101161.53;;;12.47;98.78
78562;BME280;68963;52.138;5.446;2023-04-28T09:40:59;101166.00;;;12.47;98.78
78562;BME280;68963;52.138;5.446;2023-04-28T09:43:27;101163.78;;;12.50;98.99
78562;BME280;68963;52.138;5.446;2023-04-28T09:45:55;101164.03;;;12.55;99.82
78562;BME280;68963;52.138;5.446;2023-04-28T09:48:41;101160.22;;;12.65;99.54
78562;BME280;68963;52.138;5.446;2023-04-28T09:51:08;101158.25;;;12.73;100.00
78562;BME280;68963;52.138;5.446;2023-04-28T09:53:38;101156.41;;;12.74;100.00
78562;BME280;68963;52.138;5.446;2023-04-28T09:56:05;101144.25;;;12.79;100.00
78562;BME280;68963;52.138;5.446;2023-04-28T09:58:33;101136.00;;;12.96;100.00
78562;BME280;68963;52.138;5.446;2023-04-28T10:01:00;101135.50;;;13.20;100.00
78562;BME280;68963;52.138;5.446;2023-04-28T10:03:29;101139.44;;;13.31;100.00
78562;BME280;68963;52.138;5.446;2023-04-28T10:05:57;101148.78;;;13.27;100.00
78562;BME280;68963;52.138;5.446;2023-04-28T10:08:25;101145.34;;;13.26;100.00
78562;BME280;68963;52.138;5.446;2023-04-28T10:10:53;101140.47;;;13.30;100.00
78562;BME280;68963;52.138;5.446;2023-04-28T10:13:21;101144.13;;;13.36;100.00
78562;BME280;68963;52.138;5.446;2023-04-28T10:15:49;101142.09;;;13.31;100.00
78562;BME280;68963;52.138;5.446;2023-04-28T10:18:16;101137.81;;;13.30;100.00
78562;BME280;68963;52.138;5.446;2023-04-28T10:20:56;101142.69;;;13.26;100.00
78562;BME280;68963;52.138;5.446;2023-04-28T10:26:51;101141.00;;;13.19;100.00
78562;BME280;68963;52.138;5.446;2023-04-28T10:29:24;101140.19;;;13.18;100.00
78562;BME280;68963;52.138;5.446;2023-04-28T10:32:13;101143.25;;;13.22;100.00
78562;BME280;68963;52.138;5.446;2023-04-28T10:34:40;101142.22;;;13.16;100.00
78562;BME280;68963;52.138;5.446;2023-04-28T10:37:07;101148.31;;;13.17;100.00
78562;BME280;68963;52.138;5.446;2023-04-28T10:39:34;101142.84;;;13.18;100.00
78562;BME280;68963;52.138;5.446;2023-04-28T10:42:00;101144.25;;;13.21;100.00
78562;BME280;68963;52.138;5.446;2023-04-28T10:47:00;101140.88;;;13.34;100.00
78562;BME280;68963;52.138;5.446;2023-04-28T10:55:30;101150.50;;;13.54;100.00
78562;BME280;68963;52.138;5.446;2023-04-28T11:00:47;101146.28;;;13.80;100.00
78562;BME280;68963;52.138;5.446;2023-04-28T11:06:25;101138.56;;;13.98;100.00
78562;BME280;68963;52.138;5.446;2023-04-28T11:08:58;101140.81;;;14.08;100.00
78562;BME280;68963;52.138;5.446;2023-04-28T11:11:30;101145.50;;;14.19;100.00
78562;BME280;68963;52.138;5.446;2023-04-28T11:21:57;101138.38;;;14.20;100.00
78562;BME280;68963;52.138;5.446;2023-04-28T11:24:25;101136.13;;;14.17;100.00
78562;BME280;68963;52.138;5.446;2023-04-28T11:26:56;101135.53;;;14.21;100.00
78562;BME280;68963;52.138;5.446;2023-04-28T11:29:37;101135.72;;;14.13;100.00
78562;BME280;68963;52.138;5.446;2023-04-28T11:32:06;101134.72;;;14.14;100.00
78562;BME280;68963;52.138;5.446;2023-04-28T11:34:34;101128.59;;;14.14;100.00
78562;BME280;68963;52.138;5.446;2023-04-28T11:37:01;101130.22;;;14.08;100.00
78562;BME280;68963;52.138;5.446;2023-04-28T11:39:32;101141.25;;;14.18;100.00
78562;BME280;68963;52.138;5.446;2023-04-28T11:42:00;101119.84;;;14.33;100.00
78562;BME280;68963;52.138;5.446;2023-04-28T11:44:29;101136.94;;;14.44;100.00
78562;BME280;68963;52.138;5.446;2023-04-28T11:46:57;101129.81;;;14.44;100.00
78562;BME280;68963;52.138;5.446;2023-04-28T11:49:31;101130.22;;;14.41;100.00
78562;BME280;68963;52.138;5.446;2023-04-28T11:52:06;101123.28;;;14.40;100.00
78562;BME280;68963;52.138;5.446;2023-04-28T11:54:34;101124.09;;;14.34;100.00
78562;BME280;68963;52.138;5.446;2023-04-28T11:57:01;101137.13;;;14.36;100.00
78562;BME280;68963;52.138;5.446;2023-04-28T11:59:33;101138.56;;;14.32;100.00
78562;BME280;68963;52.138;5.446;2023-04-28T12:02:04;101132.69;;;14.23;100.00
78562;BME280;68963;52.138;5.446;2023-04-28T12:07:06;101141.44;;;14.23;100.00
78562;BME280;68963;52.138;5.446;2023-04-28T12:09:37;101137.34;;;14.27;100.00
78562;BME280;68963;52.138;5.446;2023-04-28T12:12:05;101137.75;;;14.38;100.00
78562;BME280;68963;52.138;5.446;2023-04-28T12:14:53;101139.00;;;14.62;100.00
78562;BME280;68963;52.138;5.446;2023-04-28T12:19:50;101133.41;;;14.90;99.51
78562;BME280;68963;52.138;5.446;2023-04-28T12:22:17;101134.63;;;14.87;98.31
78562;BME280;68963;52.138;5.446;2023-04-28T12:24:44;101127.09;;;14.84;98.46
78562;BME280;68963;52.138;5.446;2023-04-28T12:27:16;101141.38;;;14.83;98.10
78562;BME280;68963;52.138;5.446;2023-04-28T12:29:43;101138.94;;;14.75;98.27
78562;BME280;68963;52.138;5.446;2023-04-28T12:32:12;101137.28;;;14.87;98.72
78562;BME280;68963;52.138;5.446;2023-04-28T12:34:40;101143.19;;;14.96;96.86
78562;BME280;68963;52.138;5.446;2023-04-28T12:37:07;101147.28;;;14.98;96.86
78562;BME280;68963;52.138;5.446;2023-04-28T12:39:35;101145.84;;;14.89;97.35
78562;BME280;68963;52.138;5.446;2023-04-28T12:42:05;101142.41;;;14.82;97.56
78562;BME280;68963;52.138;5.446;2023-04-28T12:44:33;101140.22;;;14.66;96.82
78562;BME280;68963;52.138;5.446;2023-04-28T12:47:07;101143.28;;;14.49;97.46
78562;BME280;68963;52.138;5.446;2023-04-28T12:49:34;101146.31;;;14.46;98.13
78562;BME280;68963;52.138;5.446;2023-04-28T12:52:03;101144.09;;;14.50;97.61
78562;BME280;68963;52.138;5.446;2023-04-28T12:54:30;101139.19;;;14.67;97.58
78562;BME280;68963;52.138;5.446;2023-04-28T12:56:56;101136.66;;;14.92;96.29
78562;BME280;68963;52.138;5.446;2023-04-28T12:59:23;101137.41;;;15.06;96.79
78562;BME280;68963;52.138;5.446;2023-04-28T13:01:50;101139.47;;;15.10;96.58
78562;BME280;68963;52.138;5.446;2023-04-28T13:04:17;101143.09;;;15.16;96.05
78562;BME280;68963;52.138;5.446;2023-04-28T13:06:44;101150.25;;;15.15;96.43
78562;BME280;68963;52.138;5.446;2023-04-28T13:09:11;101150.88;;;15.17;96.98
78562;BME280;68963;52.138;5.446;2023-04-28T13:11:38;101142.44;;;15.27;97.91
78562;BME280;68963;52.138;5.446;2023-04-28T13:14:05;101144.00;;;15.41;97.29
78562;BME280;68963;52.138;5.446;2023-04-28T13:16:32;101136.47;;;15.38;95.74
78562;BME280;68963;52.138;5.446;2023-04-28T13:19:00;101141.59;;;15.33;96.36
78562;BME280;68963;52.138;5.446;2023-04-28T13:21:27;101148.13;;;15.31;96.51
78562;BME280;68963;52.138;5.446;2023-04-28T13:23:57;101147.16;;;15.25;96.29
78562;BME280;68963;52.138;5.446;2023-04-28T13:26:25;101142.47;;;15.20;96.22
78562;BME280;68963;52.138;5.446;2023-04-28T13:28:52;101139.19;;;15.25;95.70